RYR4109 ESGG-EPPO
Flight info
| Callsign | RYR4109 |
|---|---|
| Flight time | 0h 55m |
| Altitude | 21000 |
| Route | TOPL3J TOPLA KEMAX POKEN Z491 VAVUN L996 DENKO DENK1M |
| Aircraft | B738/M-SDE2E3FGHIRWXY/S |
Departure
| Time | 2026-04-23 17:35 |
|---|---|
| Airport | Göteborg Landvetter Airport (ESGG) |
Arrival
| Time | 2026-04-23 18:30 |
|---|---|
| Airport | Poznań-Ławica Airport (EPPO) |
| Time | Latitude | Longitude | Altitude | Speed | Heading |
|---|---|---|---|---|---|
| 2026-04-23 17:16 | 57.67265 | 12.29509 | 509 ft | 0 kts | 251° |
| 2026-04-23 17:23 | 57.67275 | 12.29561 | 510 ft | 2 kts | 251° |
| 2026-04-23 17:24 | 57.67280 | 12.29590 | 512 ft | 2 kts | 250° |
| 2026-04-23 17:24 | 57.67286 | 12.29618 | 513 ft | 2 kts | 244° |
| 2026-04-23 17:24 | 57.67311 | 12.29655 | 514 ft | 2 kts | 206° |
| 2026-04-23 17:25 | 57.67315 | 12.29658 | 514 ft | 0 kts | 206° |
| 2026-04-23 17:27 | 57.67308 | 12.29652 | 514 ft | 7 kts | 206° |
| 2026-04-23 17:27 | 57.67220 | 12.29571 | 513 ft | 20 kts | 207° |
| 2026-04-23 17:28 | 57.67219 | 12.29457 | 510 ft | 11 kts | 296° |
| 2026-04-23 17:28 | 57.67307 | 12.29425 | 510 ft | 20 kts | 25° |
| 2026-04-23 17:28 | 57.67419 | 12.29523 | 512 ft | 10 kts | 25° |
| 2026-04-23 17:28 | 57.67462 | 12.29560 | 512 ft | 5 kts | 21° |
| 2026-04-23 17:29 | 57.67517 | 12.29590 | 513 ft | 12 kts | 354° |
| 2026-04-23 17:29 | 57.67542 | 12.29565 | 514 ft | 8 kts | 325° |
| 2026-04-23 17:29 | 57.67559 | 12.29520 | 513 ft | 1 kts | 298° |
| 2026-04-23 17:30 | 57.67570 | 12.29481 | 513 ft | 9 kts | 297° |
| 2026-04-23 17:30 | 57.67590 | 12.29383 | 512 ft | 0 kts | 276° |
| 2026-04-23 17:33 | 57.67590 | 12.29358 | 512 ft | 8 kts | 271° |
| 2026-04-23 17:33 | 57.67582 | 12.29185 | 512 ft | 15 kts | 262° |
| 2026-04-23 17:33 | 57.67543 | 12.29127 | 511 ft | 0 kts | 206° |
| 2026-04-23 17:34 | 57.67538 | 12.29122 | 511 ft | 0 kts | 206° |
| 2026-04-23 17:34 | 57.67534 | 12.29119 | 511 ft | 1 kts | 205° |
| 2026-04-23 17:34 | 57.67124 | 12.28742 | 517 ft | 97 kts | 206° |
| 2026-04-23 17:35 | 57.66307 | 12.27991 | 512 ft | 162 kts | 207° |
| 2026-04-23 17:35 | 57.64074 | 12.26003 | 1461 ft | 211 kts | 210° |
| 2026-04-23 17:35 | 57.62687 | 12.24738 | 1989 ft | 230 kts | 209° |
| 2026-04-23 17:36 | 57.61207 | 12.23459 | 2634 ft | 239 kts | 201° |
| 2026-04-23 17:36 | 57.59552 | 12.23059 | 3246 ft | 243 kts | 181° |
| 2026-04-23 17:36 | 57.57831 | 12.22928 | 3716 ft | 251 kts | 185° |
| 2026-04-23 17:36 | 57.56087 | 12.22696 | 4336 ft | 252 kts | 185° |
| 2026-04-23 17:37 | 57.54324 | 12.22714 | 4952 ft | 256 kts | 173° |
| 2026-04-23 17:37 | 57.52505 | 12.23175 | 5318 ft | 275 kts | 170° |
| 2026-04-23 17:37 | 57.48379 | 12.24430 | 5786 ft | 326 kts | 170° |
| 2026-04-23 17:38 | 57.46056 | 12.25116 | 6005 ft | 350 kts | 171° |
| 2026-04-23 17:38 | 57.43567 | 12.25828 | 6225 ft | 373 kts | 171° |
| 2026-04-23 17:38 | 57.40962 | 12.26554 | 6727 ft | 383 kts | 171° |
| 2026-04-23 17:38 | 57.38340 | 12.27270 | 7380 ft | 388 kts | 172° |
| 2026-04-23 17:39 | 57.35652 | 12.27997 | 8058 ft | 393 kts | 172° |
| 2026-04-23 17:39 | 57.32926 | 12.28729 | 8676 ft | 399 kts | 172° |
| 2026-04-23 17:39 | 57.30160 | 12.29470 | 9323 ft | 404 kts | 172° |
| 2026-04-23 17:39 | 57.27357 | 12.30220 | 9947 ft | 410 kts | 172° |
| 2026-04-23 17:40 | 57.24517 | 12.30980 | 10511 ft | 415 kts | 172° |
| 2026-04-23 17:40 | 57.21655 | 12.31846 | 11105 ft | 419 kts | 167° |
| 2026-04-23 17:40 | 57.18893 | 12.33611 | 11649 ft | 423 kts | 153° |
| 2026-04-23 17:40 | 57.16343 | 12.36347 | 12244 ft | 425 kts | 147° |
| 2026-04-23 17:41 | 57.13815 | 12.39221 | 12786 ft | 429 kts | 147° |
| 2026-04-23 17:41 | 57.08633 | 12.44926 | 13832 ft | 438 kts | 148° |
| 2026-04-23 17:41 | 57.05991 | 12.47785 | 14305 ft | 442 kts | 148° |
| 2026-04-23 17:42 | 57.00639 | 12.53533 | 15265 ft | 449 kts | 148° |
| 2026-04-23 17:42 | 56.97933 | 12.56429 | 15734 ft | 452 kts | 148° |
| 2026-04-23 17:42 | 56.95206 | 12.59343 | 16209 ft | 455 kts | 148° |
| 2026-04-23 17:43 | 56.92457 | 12.62277 | 16659 ft | 459 kts | 148° |
| 2026-04-23 17:43 | 56.89687 | 12.65230 | 17111 ft | 463 kts | 148° |
| 2026-04-23 17:43 | 56.86895 | 12.68200 | 17549 ft | 466 kts | 148° |
| 2026-04-23 17:43 | 56.84083 | 12.71188 | 17976 ft | 470 kts | 148° |
| 2026-04-23 17:44 | 56.81245 | 12.74199 | 18402 ft | 473 kts | 148° |
| 2026-04-23 17:44 | 56.78395 | 12.77216 | 18788 ft | 475 kts | 148° |
| 2026-04-23 17:44 | 56.72646 | 12.83286 | 19625 ft | 480 kts | 149° |
| 2026-04-23 17:45 | 56.69750 | 12.86336 | 20024 ft | 482 kts | 149° |
| 2026-04-23 17:45 | 56.63918 | 12.92460 | 20811 ft | 486 kts | 149° |
| 2026-04-23 17:45 | 56.60982 | 12.95535 | 21120 ft | 489 kts | 149° |
| 2026-04-23 17:46 | 56.55064 | 13.01716 | 21105 ft | 488 kts | 149° |
| 2026-04-23 17:46 | 56.52125 | 13.04777 | 21114 ft | 487 kts | 149° |
| 2026-04-23 17:46 | 56.49177 | 13.07841 | 21126 ft | 488 kts | 149° |
| 2026-04-23 17:47 | 56.46223 | 13.10908 | 21118 ft | 490 kts | 149° |
| 2026-04-23 17:47 | 56.43270 | 13.13967 | 21115 ft | 490 kts | 149° |
| 2026-04-23 17:47 | 56.37353 | 13.20082 | 21110 ft | 490 kts | 149° |
| 2026-04-23 17:48 | 56.34396 | 13.23129 | 21106 ft | 489 kts | 149° |
| 2026-04-23 17:48 | 56.31441 | 13.26169 | 21112 ft | 488 kts | 149° |
| 2026-04-23 17:48 | 56.28491 | 13.29197 | 21106 ft | 488 kts | 149° |
| 2026-04-23 17:48 | 56.25543 | 13.32219 | 21109 ft | 487 kts | 149° |
| 2026-04-23 17:49 | 56.22601 | 13.35230 | 21114 ft | 487 kts | 149° |
| 2026-04-23 17:49 | 56.19659 | 13.38236 | 21111 ft | 486 kts | 149° |
| 2026-04-23 17:49 | 56.16754 | 13.41201 | 21109 ft | 486 kts | 149° |
| 2026-04-23 17:49 | 56.13775 | 13.44233 | 21109 ft | 486 kts | 149° |
| 2026-04-23 17:50 | 56.10851 | 13.47114 | 21112 ft | 486 kts | 152° |
| 2026-04-23 17:50 | 56.04786 | 13.52495 | 21110 ft | 487 kts | 154° |
| 2026-04-23 17:50 | 56.01727 | 13.55108 | 21110 ft | 487 kts | 154° |
| 2026-04-23 17:51 | 55.98671 | 13.57717 | 21108 ft | 487 kts | 154° |
| 2026-04-23 17:51 | 55.95615 | 13.60340 | 21107 ft | 487 kts | 153° |
| 2026-04-23 17:51 | 55.90503 | 13.64762 | 21083 ft | 487 kts | 153° |
| 2026-04-23 17:52 | 55.87457 | 13.67407 | 21078 ft | 487 kts | 153° |
| 2026-04-23 17:52 | 55.81366 | 13.72694 | 21083 ft | 487 kts | 153° |
| 2026-04-23 17:52 | 55.78362 | 13.75296 | 21081 ft | 487 kts | 153° |
| 2026-04-23 17:53 | 55.72278 | 13.80549 | 21084 ft | 486 kts | 153° |
| 2026-04-23 17:53 | 55.69237 | 13.83166 | 21088 ft | 486 kts | 153° |
| 2026-04-23 17:53 | 55.66195 | 13.85780 | 21090 ft | 486 kts | 153° |
| 2026-04-23 17:54 | 55.63155 | 13.88387 | 21091 ft | 486 kts | 153° |
| 2026-04-23 17:54 | 55.60110 | 13.90994 | 21102 ft | 486 kts | 153° |
| 2026-04-23 17:54 | 55.54016 | 13.96198 | 21098 ft | 486 kts | 153° |
| 2026-04-23 17:55 | 55.47917 | 14.01388 | 21098 ft | 487 kts | 153° |
| 2026-04-23 17:55 | 55.44862 | 14.03981 | 21102 ft | 487 kts | 153° |
| 2026-04-23 17:55 | 55.41807 | 14.06569 | 21102 ft | 487 kts | 153° |
| 2026-04-23 17:56 | 55.38753 | 14.09153 | 21095 ft | 488 kts | 153° |
| 2026-04-23 17:56 | 55.32632 | 14.14318 | 21098 ft | 488 kts | 153° |
| 2026-04-23 17:56 | 55.29566 | 14.16898 | 21096 ft | 488 kts | 153° |
| 2026-04-23 17:57 | 55.26500 | 14.19473 | 21097 ft | 489 kts | 153° |
| 2026-04-23 17:57 | 55.23430 | 14.22047 | 21096 ft | 489 kts | 153° |
| 2026-04-23 17:57 | 55.17291 | 14.27182 | 21095 ft | 489 kts | 153° |
| 2026-04-23 17:58 | 55.14215 | 14.29749 | 21094 ft | 490 kts | 153° |
| 2026-04-23 17:58 | 55.11136 | 14.32314 | 21096 ft | 490 kts | 154° |
| 2026-04-23 17:58 | 55.08060 | 14.34871 | 21093 ft | 490 kts | 153° |
| 2026-04-23 17:58 | 55.04977 | 14.37430 | 21090 ft | 491 kts | 154° |
| 2026-04-23 17:59 | 55.01892 | 14.39987 | 21090 ft | 491 kts | 154° |
| 2026-04-23 17:59 | 54.98802 | 14.42543 | 21095 ft | 491 kts | 154° |
| 2026-04-23 17:59 | 54.95715 | 14.45092 | 21097 ft | 492 kts | 154° |
| 2026-04-23 17:59 | 54.92624 | 14.47641 | 21092 ft | 492 kts | 154° |
| 2026-04-23 18:00 | 54.89526 | 14.50192 | 21097 ft | 492 kts | 154° |
| 2026-04-23 18:00 | 54.86434 | 14.52734 | 21096 ft | 492 kts | 154° |
| 2026-04-23 18:00 | 54.83337 | 14.55274 | 21099 ft | 493 kts | 154° |
| 2026-04-23 18:00 | 54.80205 | 14.57708 | 21098 ft | 493 kts | 157° |
| 2026-04-23 18:01 | 54.76991 | 14.59787 | 21108 ft | 493 kts | 160° |
| 2026-04-23 18:01 | 54.73740 | 14.61697 | 21110 ft | 493 kts | 161° |
| 2026-04-23 18:01 | 54.70483 | 14.63582 | 21112 ft | 493 kts | 161° |
| 2026-04-23 18:01 | 54.67237 | 14.65503 | 21110 ft | 494 kts | 160° |
| 2026-04-23 18:02 | 54.63997 | 14.67471 | 21105 ft | 493 kts | 160° |
| 2026-04-23 18:02 | 54.60765 | 14.69459 | 21112 ft | 493 kts | 160° |
| 2026-04-23 18:02 | 54.57575 | 14.71421 | 21115 ft | 493 kts | 160° |
| 2026-04-23 18:02 | 54.54356 | 14.73466 | 21114 ft | 493 kts | 156° |
| 2026-04-23 18:03 | 54.51339 | 14.76224 | 21107 ft | 491 kts | 144° |
| 2026-04-23 18:03 | 54.48575 | 14.79651 | 21127 ft | 490 kts | 141° |
| 2026-04-23 18:03 | 54.45817 | 14.83096 | 21122 ft | 490 kts | 142° |
| 2026-04-23 18:03 | 54.43041 | 14.86508 | 21120 ft | 491 kts | 142° |
| 2026-04-23 18:04 | 54.40253 | 14.89887 | 21113 ft | 491 kts | 143° |
| 2026-04-23 18:04 | 54.37455 | 14.93242 | 21118 ft | 491 kts | 143° |
| 2026-04-23 18:04 | 54.34648 | 14.96588 | 21120 ft | 491 kts | 143° |
| 2026-04-23 18:04 | 54.31838 | 14.99926 | 21121 ft | 492 kts | 143° |
| 2026-04-23 18:05 | 54.29023 | 15.03262 | 21126 ft | 492 kts | 143° |
| 2026-04-23 18:05 | 54.26210 | 15.06591 | 21128 ft | 492 kts | 143° |
| 2026-04-23 18:05 | 54.23391 | 15.09925 | 21124 ft | 492 kts | 143° |
| 2026-04-23 18:05 | 54.20574 | 15.13251 | 21126 ft | 492 kts | 143° |
| 2026-04-23 18:06 | 54.17758 | 15.16573 | 21128 ft | 492 kts | 143° |
| 2026-04-23 18:06 | 54.14936 | 15.19896 | 21130 ft | 492 kts | 143° |
| 2026-04-23 18:06 | 54.12119 | 15.23207 | 21131 ft | 492 kts | 143° |
| 2026-04-23 18:06 | 54.09301 | 15.26516 | 21130 ft | 492 kts | 143° |
| 2026-04-23 18:07 | 54.06487 | 15.29813 | 21131 ft | 492 kts | 143° |
| 2026-04-23 18:07 | 54.03707 | 15.33065 | 21129 ft | 492 kts | 143° |
| 2026-04-23 18:07 | 54.00886 | 15.36360 | 21129 ft | 492 kts | 143° |
| 2026-04-23 18:07 | 53.98064 | 15.39649 | 21133 ft | 492 kts | 143° |
| 2026-04-23 18:08 | 53.96155 | 15.41872 | 21132 ft | 492 kts | 143° |
| 2026-04-23 18:08 | 53.92417 | 15.46216 | 21135 ft | 492 kts | 143° |
| 2026-04-23 18:08 | 53.89596 | 15.49489 | 21134 ft | 492 kts | 143° |
| 2026-04-23 18:08 | 53.86773 | 15.52758 | 21135 ft | 492 kts | 143° |
| 2026-04-23 18:09 | 53.83948 | 15.56025 | 21136 ft | 492 kts | 143° |
| 2026-04-23 18:09 | 53.81119 | 15.59289 | 21135 ft | 492 kts | 143° |
| 2026-04-23 18:09 | 53.78293 | 15.62547 | 21134 ft | 492 kts | 143° |
| 2026-04-23 18:09 | 53.75469 | 15.65795 | 21133 ft | 491 kts | 143° |
| 2026-04-23 18:10 | 53.72641 | 15.69043 | 21136 ft | 491 kts | 143° |
| 2026-04-23 18:10 | 53.69814 | 15.72284 | 21140 ft | 491 kts | 143° |
| 2026-04-23 18:10 | 53.66986 | 15.75522 | 21135 ft | 491 kts | 143° |
| 2026-04-23 18:10 | 53.64157 | 15.78755 | 21139 ft | 491 kts | 143° |
| 2026-04-23 18:11 | 53.61327 | 15.81984 | 21134 ft | 491 kts | 143° |
| 2026-04-23 18:11 | 53.58499 | 15.85205 | 21135 ft | 491 kts | 143° |
| 2026-04-23 18:11 | 53.55670 | 15.88422 | 21136 ft | 491 kts | 143° |
| 2026-04-23 18:11 | 53.52839 | 15.91636 | 21136 ft | 491 kts | 143° |
| 2026-04-23 18:12 | 53.50007 | 15.94846 | 21135 ft | 491 kts | 143° |
| 2026-04-23 18:12 | 53.47174 | 15.98052 | 21134 ft | 491 kts | 143° |
| 2026-04-23 18:12 | 53.44343 | 16.01250 | 21137 ft | 491 kts | 143° |
| 2026-04-23 18:12 | 53.41510 | 16.04446 | 21135 ft | 491 kts | 143° |
| 2026-04-23 18:13 | 53.38676 | 16.07638 | 21133 ft | 491 kts | 143° |
| 2026-04-23 18:13 | 53.35844 | 16.10822 | 21131 ft | 490 kts | 143° |
| 2026-04-23 18:13 | 53.33010 | 16.14003 | 21134 ft | 490 kts | 143° |
| 2026-04-23 18:13 | 53.30176 | 16.17178 | 21128 ft | 490 kts | 143° |
| 2026-04-23 18:14 | 53.27343 | 16.20347 | 21129 ft | 490 kts | 143° |
| 2026-04-23 18:14 | 53.24507 | 16.23516 | 21131 ft | 490 kts | 143° |
| 2026-04-23 18:14 | 53.21670 | 16.26680 | 21126 ft | 490 kts | 143° |
| 2026-04-23 18:14 | 53.18835 | 16.29836 | 21126 ft | 490 kts | 143° |
| 2026-04-23 18:15 | 53.15998 | 16.32990 | 21127 ft | 490 kts | 143° |
| 2026-04-23 18:15 | 53.13159 | 16.36140 | 21127 ft | 490 kts | 143° |
| 2026-04-23 18:15 | 53.10321 | 16.39284 | 21125 ft | 490 kts | 143° |
| 2026-04-23 18:15 | 53.07480 | 16.42427 | 21122 ft | 490 kts | 143° |
| 2026-04-23 18:16 | 53.04643 | 16.45560 | 21123 ft | 490 kts | 143° |
| 2026-04-23 18:16 | 53.01803 | 16.48692 | 21125 ft | 490 kts | 143° |
| 2026-04-23 18:16 | 52.98998 | 16.51779 | 21118 ft | 490 kts | 143° |
| 2026-04-23 18:17 | 52.93320 | 16.58016 | 21120 ft | 489 kts | 143° |
| 2026-04-23 18:17 | 52.90481 | 16.61126 | 21121 ft | 489 kts | 143° |
| 2026-04-23 18:17 | 52.87677 | 16.64190 | 21089 ft | 474 kts | 143° |
| 2026-04-23 18:17 | 52.84981 | 16.67126 | 20786 ft | 458 kts | 143° |
| 2026-04-23 18:18 | 52.82333 | 16.70012 | 20278 ft | 454 kts | 143° |
| 2026-04-23 18:18 | 52.79701 | 16.72880 | 19730 ft | 452 kts | 143° |
| 2026-04-23 18:18 | 52.77083 | 16.75731 | 19203 ft | 449 kts | 143° |
| 2026-04-23 18:18 | 52.74483 | 16.78556 | 18721 ft | 446 kts | 143° |
| 2026-04-23 18:19 | 52.71902 | 16.81356 | 18226 ft | 442 kts | 143° |
| 2026-04-23 18:19 | 52.69344 | 16.84127 | 17699 ft | 436 kts | 143° |
| 2026-04-23 18:19 | 52.66835 | 16.86836 | 16978 ft | 428 kts | 143° |
| 2026-04-23 18:19 | 52.64359 | 16.89510 | 16120 ft | 425 kts | 143° |
| 2026-04-23 18:20 | 52.61895 | 16.92169 | 15340 ft | 420 kts | 143° |
| 2026-04-23 18:20 | 52.59468 | 16.94783 | 14619 ft | 414 kts | 143° |
| 2026-04-23 18:20 | 52.57071 | 16.97362 | 13905 ft | 409 kts | 144° |
| 2026-04-23 18:20 | 52.54708 | 16.99903 | 13119 ft | 404 kts | 144° |
| 2026-04-23 18:21 | 52.52372 | 17.02410 | 12371 ft | 398 kts | 144° |
| 2026-04-23 18:21 | 52.50068 | 17.04878 | 11636 ft | 393 kts | 144° |
| 2026-04-23 18:21 | 52.47873 | 17.07398 | 10906 ft | 386 kts | 135° |
| 2026-04-23 18:21 | 52.46290 | 17.10863 | 10441 ft | 365 kts | 112° |
| 2026-04-23 18:22 | 52.45372 | 17.14580 | 10405 ft | 337 kts | 104° |
| 2026-04-23 18:22 | 52.44705 | 17.18021 | 10722 ft | 298 kts | 102° |
| 2026-04-23 18:22 | 52.44127 | 17.21101 | 10595 ft | 277 kts | 101° |
| 2026-04-23 18:22 | 52.43576 | 17.24006 | 10480 ft | 257 kts | 101° |
| 2026-04-23 18:23 | 52.43135 | 17.25808 | 10345 ft | 251 kts | 116° |
| 2026-04-23 18:23 | 52.39597 | 17.28193 | 8876 ft | 250 kts | 191° |
| 2026-04-23 18:24 | 52.36325 | 17.26571 | 7550 ft | 241 kts | 211° |
| 2026-04-23 18:24 | 52.35136 | 17.24818 | 6890 ft | 225 kts | 246° |
| 2026-04-23 18:24 | 52.34673 | 17.22489 | 6274 ft | 210 kts | 270° |
| 2026-04-23 18:25 | 52.35017 | 17.18736 | 5188 ft | 199 kts | 291° |
| 2026-04-23 18:25 | 52.35591 | 17.15873 | 4298 ft | 197 kts | 292° |
| 2026-04-23 18:25 | 52.36059 | 17.13877 | 4087 ft | 176 kts | 295° |
| 2026-04-23 18:25 | 52.36462 | 17.12067 | 3869 ft | 160 kts | 293° |
| 2026-04-23 18:26 | 52.36805 | 17.10369 | 3647 ft | 153 kts | 293° |
| 2026-04-23 18:26 | 52.37128 | 17.08709 | 3444 ft | 155 kts | 292° |
| 2026-04-23 18:26 | 52.37448 | 17.07037 | 3243 ft | 155 kts | 292° |
| 2026-04-23 18:26 | 52.37766 | 17.05366 | 3026 ft | 153 kts | 292° |
| 2026-04-23 18:27 | 52.38081 | 17.03708 | 2818 ft | 152 kts | 292° |
| 2026-04-23 18:27 | 52.38394 | 17.02058 | 2609 ft | 151 kts | 291° |
| 2026-04-23 18:27 | 52.38705 | 17.00423 | 2402 ft | 150 kts | 291° |
| 2026-04-23 18:27 | 52.39014 | 16.98799 | 2199 ft | 149 kts | 292° |
| 2026-04-23 18:28 | 52.39322 | 16.97183 | 1995 ft | 149 kts | 291° |
| 2026-04-23 18:28 | 52.39631 | 16.95563 | 1792 ft | 149 kts | 291° |
| 2026-04-23 18:28 | 52.39939 | 16.93948 | 1586 ft | 149 kts | 291° |
| 2026-04-23 18:28 | 52.40247 | 16.92336 | 1380 ft | 148 kts | 291° |
| 2026-04-23 18:29 | 52.40547 | 16.90766 | 1163 ft | 141 kts | 291° |
| 2026-04-23 18:29 | 52.40834 | 16.89266 | 968 ft | 138 kts | 290° |
| 2026-04-23 18:29 | 52.41125 | 16.87746 | 834 ft | 140 kts | 289° |
| 2026-04-23 18:29 | 52.41418 | 16.86214 | 600 ft | 139 kts | 289° |
| 2026-04-23 18:30 | 52.41705 | 16.84717 | 407 ft | 137 kts | 289° |
| 2026-04-23 18:30 | 52.41983 | 16.83258 | 306 ft | 119 kts | 288° |
| 2026-04-23 18:30 | 52.42117 | 16.82552 | 308 ft | 37 kts | 287° |
| 2026-04-23 18:30 | 52.42192 | 16.82178 | 308 ft | 33 kts | 289° |
| 2026-04-23 18:31 | 52.42258 | 16.81839 | 305 ft | 30 kts | 286° |
| 2026-04-23 18:31 | 52.42299 | 16.81516 | 308 ft | 28 kts | 271° |
| 2026-04-23 18:31 | 52.42283 | 16.81294 | 307 ft | 16 kts | 257° |
| 2026-04-23 18:31 | 52.42269 | 16.81191 | 309 ft | 0 kts | 245° |
| 2026-04-23 18:32 | 52.42249 | 16.81163 | 311 ft | 10 kts | 198° |
| 2026-04-23 18:32 | 52.42190 | 16.81298 | 309 ft | 24 kts | 107° |
| 2026-04-23 18:33 | 52.42131 | 16.81609 | 302 ft | 30 kts | 107° |
| 2026-04-23 18:33 | 52.42070 | 16.81921 | 304 ft | 28 kts | 109° |
| 2026-04-23 18:33 | 52.42013 | 16.82214 | 305 ft | 26 kts | 107° |
| 2026-04-23 18:33 | 52.41960 | 16.82490 | 305 ft | 25 kts | 108° |
| 2026-04-23 18:34 | 52.41910 | 16.82748 | 304 ft | 23 kts | 107° |
| 2026-04-23 18:34 | 52.41877 | 16.82892 | 303 ft | 11 kts | 130° |
| 2026-04-23 18:34 | 52.41802 | 16.82892 | 302 ft | 12 kts | 199° |
| 2026-04-23 18:34 | 52.41717 | 16.82845 | 300 ft | 13 kts | 198° |
| 2026-04-23 18:35 | 52.41668 | 16.82776 | 302 ft | 4 kts | 245° |
| 2026-04-23 18:35 | 52.41636 | 16.82740 | 300 ft | 8 kts | 188° |
| 2026-04-23 18:35 | 52.41585 | 16.82734 | 299 ft | 0 kts | 183° |
| 2026-04-23 18:35 | 52.41577 | 16.82733 | 302 ft | 0 kts | 184° |